Time;durP1;ratioP1;P1;durP2;ratioP2;P2;SDS_P1;SDS_P2;PMS_P1;PMS_P2;Temp;Humidity;BMP_temperature;BMP_pressure;BME280_temperature;BME280_humidity;BME280_pressure;Samples;Min_cycle;Max_cycle;Signal;HPM_P1;HPM_P2
2023/10/26 00:01:55;;;;;;;;;;;;;;;15.75;62.88;99391.34;4213747;28;19928;-59
2023/10/26 00:03:57;;;;;;;;;;;;;;;15.75;62.59;99395.81;4195986;28;19967;-58
2023/10/26 00:05:59;;;;;;;;;;;;;;;15.73;62.59;99387.94;4213839;28;19964;-59
2023/10/26 00:08:01;;;;;;;;;;;;;;;15.73;62.64;99385.28;4214051;28;20010;-59
2023/10/26 00:10:03;;;;;;;;;;;;;;;15.74;62.56;99380.84;4213589;28;19924;-59
2023/10/26 00:12:05;;;;;;;;;;;;;;;15.74;62.74;99383.50;4213731;28;20029;-59
2023/10/26 00:14:06;;;;;;;;;;;;;;;15.73;62.66;99373.88;4213878;28;19987;-59
2023/10/26 00:16:08;;;;;;;;;;;;;;;15.72;62.69;99367.69;4213527;28;19974;-59
2023/10/26 00:18:11;;;;;;;;;;;;;;;15.72;62.78;99367.69;4213623;28;19931;-59
2023/10/26 00:20:13;;;;;;;;;;;;;;;15.72;62.64;99366.88;4214179;28;19931;-59
2023/10/26 00:22:15;;;;;;;;;;;;;;;15.72;62.88;99370.34;4213866;28;19931;-59
2023/10/26 00:24:16;;;;;;;;;;;;;;;15.72;62.65;99356.28;4213738;28;19967;-59
2023/10/26 00:26:18;;;;;;;;;;;;;;;15.72;62.74;99365.06;4213622;28;19924;-60
2023/10/26 00:28:20;;;;;;;;;;;;;;;15.73;62.62;99368.56;4213720;28;20351;-59
2023/10/26 00:30:21;;;;;;;;;;;;;;;15.72;62.61;99364.22;4213329;28;20326;-59
2023/10/26 00:32:23;;;;;;;;;;;;;;;15.72;62.66;99359.75;4213547;28;19967;-59
2023/10/26 00:34:25;;;;;;;;;;;;;;;15.72;62.56;99359.75;4213539;28;20002;-59
2023/10/26 00:36:27;;;;;;;;;;;;;;;15.71;62.77;99359.88;4213474;28;19924;-59
2023/10/26 00:38:29;;;;;;;;;;;;;;;15.71;62.92;99352.78;4213795;28;19963;-59
2023/10/26 00:40:30;;;;;;;;;;;;;;;15.71;62.61;99354.56;4213683;28;19931;-59
2023/10/26 00:42:31;;;;;;;;;;;;;;;15.71;62.56;99346.63;4213456;28;19935;-59
2023/10/26 00:44:33;;;;;;;;;;;;;;;15.70;62.95;99347.59;4195385;28;19928;-59
2023/10/26 00:46:35;;;;;;;;;;;;;;;15.70;62.81;99339.63;4213597;28;19978;-59
2023/10/26 00:48:37;;;;;;;;;;;;;;;15.69;62.78;99340.59;4213447;28;19927;-59
2023/10/26 00:50:40;;;;;;;;;;;;;;;15.70;62.82;99340.50;4213656;28;19924;-59
2023/10/26 00:52:42;;;;;;;;;;;;;;;15.70;62.77;99350.25;4213363;28;19950;-59
2023/10/26 00:54:44;;;;;;;;;;;;;;;15.69;63.06;99343.25;4213730;28;19950;-59
2023/10/26 00:56:47;;;;;;;;;;;;;;;15.69;62.92;99341.47;4213366;28;19924;-59
2023/10/26 00:58:49;;;;;;;;;;;;;;;15.69;62.70;99344.09;4212990;28;19924;-59
2023/10/26 01:00:51;;;;;;;;;;;;;;;15.69;62.85;99335.28;4213357;28;20464;-59
2023/10/26 01:02:53;;;;;;;;;;;;;;;15.68;62.89;99339.75;4198452;28;19932;-59
2023/10/26 01:04:55;;;;;;;;;;;;;;;15.68;62.75;99339.75;4217014;28;19928;-59
2023/10/26 01:06:57;;;;;;;;;;;;;;;15.67;62.88;99332.78;4216906;28;19924;-59
2023/10/26 01:08:58;;;;;;;;;;;;;;;15.68;62.79;99334.47;4216986;28;19924;-59
2023/10/26 01:11:01;;;;;;;;;;;;;;;15.67;62.83;99332.78;4216913;28;20289;-59
2023/10/26 01:13:04;;;;;;;;;;;;;;;15.65;62.70;99324.94;4216970;28;20403;-59
2023/10/26 01:15:06;;;;;;;;;;;;;;;15.65;62.74;99324.94;4216320;28;19924;-59
2023/10/26 01:17:08;;;;;;;;;;;;;;;15.65;62.95;99324.13;4216883;28;19993;-58
2023/10/26 01:19:09;;;;;;;;;;;;;;;15.66;62.79;99320.47;4216767;28;19986;-58
2023/10/26 01:21:11;;;;;;;;;;;;;;;15.66;62.69;99328.44;4216607;28;19931;-59
2023/10/26 01:23:13;;;;;;;;;;;;;;;15.65;63.01;99329.44;4216332;28;19928;-60
2023/10/26 01:25:14;;;;;;;;;;;;;;;15.64;62.85;99323.25;4216726;28;19928;-58
2023/10/26 01:27:21;;;;;;;;;;;;;;;15.64;62.94;99325.91;4216553;28;20014;-59
2023/10/26 01:29:27;;;;;;;;;;;;;;;15.64;63.05;99327.72;4216340;28;20047;-59
2023/10/26 01:31:29;;;;;;;;;;;;;;;15.63;62.83;99320.75;4216529;28;19928;-58
2023/10/26 01:33:30;;;;;;;;;;;;;;;15.63;62.75;99321.56;4216470;28;19924;-58
2023/10/26 01:35:40;;;;;;;;;;;;;;;15.64;62.74;99314.47;4216330;28;20018;-59
2023/10/26 01:37:42;;;;;;;;;;;;;;;15.63;62.95;99321.56;4216334;28;19924;-59
2023/10/26 01:39:44;;;;;;;;;;;;;;;15.62;63.07;99316.41;4216289;28;20002;-59
2023/10/26 01:41:48;;;;;;;;;;;;;;;15.62;63.14;99317.22;4216305;28;19977;-59
2023/10/26 01:43:50;;;;;;;;;;;;;;;15.62;63.00;99311.09;4216121;28;20001;-59
2023/10/26 01:45:51;;;;;;;;;;;;;;;15.61;63.00;99312.91;4216401;28;20434;-59
2023/10/26 01:47:54;;;;;;;;;;;;;;;15.61;62.99;99309.41;4216175;28;19986;-58
2023/10/26 01:49:56;;;;;;;;;;;;;;;15.60;63.13;99308.59;4216199;28;20304;-59
2023/10/26 01:51:58;;;;;;;;;;;;;;;15.60;62.95;99305.94;4216168;28;19924;-59
2023/10/26 01:53:59;;;;;;;;;;;;;;;15.61;62.99;99304.09;4215982;28;19928;-59
2023/10/26 01:56:01;;;;;;;;;;;;;;;15.59;63.21;99309.53;4216333;28;19932;-59
2023/10/26 01:58:03;;;;;;;;;;;;;;;15.59;63.13;99309.53;4215719;28;19944;-58
2023/10/26 02:00:05;;;;;;;;;;;;;;;15.60;63.08;99303.28;4216174;28;20424;-59
2023/10/26 02:02:06;;;;;;;;;;;;;;;15.59;63.00;99298.94;4215754;28;19924;-58
2023/10/26 02:04:08;;;;;;;;;;;;;;;15.59;63.09;99306.91;4215973;28;20019;-58
2023/10/26 02:06:09;;;;;;;;;;;;;;;15.58;63.47;99296.41;4215955;28;19962;-58
2023/10/26 02:08:11;;;;;;;;;;;;;;;15.58;63.22;99286.66;4216011;28;20305;-59
2023/10/26 02:10:14;;;;;;;;;;;;;;;15.58;63.37;99291.13;4215975;28;19931;-59
2023/10/26 02:12:15;;;;;;;;;;;;;;;15.56;63.11;99275.31;4215668;28;20300;-59
2023/10/26 02:14:18;;;;;;;;;;;;;;;15.56;63.37;99277.97;4214379;28;20006;-58
2023/10/26 02:16:20;;;;;;;;;;;;;;;15.56;63.47;99272.66;4215884;28;20419;-59
2023/10/26 02:18:21;;;;;;;;;;;;;;;15.57;63.60;99269.06;4215964;28;20423;-58
2023/10/26 02:20:23;;;;;;;;;;;;;;;15.56;63.11;99262.06;4215877;28;20019;-59
2023/10/26 02:22:25;;;;;;;;;;;;;;;15.56;63.28;99250.66;4215681;28;19963;-58
2023/10/26 02:24:27;;;;;;;;;;;;;;;15.55;63.54;99251.59;4215724;28;19950;-58
2023/10/26 02:26:28;;;;;;;;;;;;;;;15.54;63.51;99256.06;4215478;28;19924;-58
2023/10/26 02:28:30;;;;;;;;;;;;;;;15.55;63.27;99259.56;4215579;28;19924;-57
2023/10/26 02:30:32;;;;;;;;;;;;;;;15.56;63.34;99250.66;4215716;28;19928;-57
2023/10/26 02:32:34;;;;;;;;;;;;;;;15.55;63.61;99254.25;4215319;28;19928;-58
2023/10/26 02:34:35;;;;;;;;;;;;;;;15.54;63.53;99253.44;4215743;28;19924;-58
2023/10/26 02:36:37;;;;;;;;;;;;;;;15.55;63.30;99248.97;4215427;28;19924;-57
2023/10/26 02:38:38;;;;;;;;;;;;;;;15.53;63.19;99249.09;4215572;28;19954;-57
2023/10/26 02:40:40;;;;;;;;;;;;;;;15.54;63.35;99241.97;4214980;28;19924;-57
2023/10/26 02:42:42;;;;;;;;;;;;;;;15.54;63.48;99236.66;4215276;28;20285;-58
2023/10/26 02:44:44;;;;;;;;;;;;;;;15.54;63.60;99239.31;4215466;28;20030;-58
2023/10/26 02:46:46;;;;;;;;;;;;;;;15.53;63.30;99232.31;4215485;28;19928;-58
2023/10/26 02:48:47;;;;;;;;;;;;;;;15.54;63.36;99229.56;4215010;28;20012;-58
2023/10/26 02:50:54;;;;;;;;;;;;;;;15.53;63.44;99229.69;4215204;28;19970;-58
2023/10/26 02:52:55;;;;;;;;;;;;;;;15.54;63.57;99226.06;4215171;28;20001;-58
2023/10/26 02:54:57;;;;;;;;;;;;;;;15.53;63.55;99224.38;4214984;28;20325;-58
2023/10/26 02:56:58;;;;;;;;;;;;;;;15.53;63.36;99219.94;4215399;28;19966;-57
2023/10/26 02:59:00;;;;;;;;;;;;;;;15.53;63.57;99216.44;4215145;28;19924;-58
2023/10/26 03:01:02;;;;;;;;;;;;;;;15.52;63.34;99215.59;4215137;28;20417;-58
2023/10/26 03:03:03;;;;;;;;;;;;;;;15.53;63.57;99204.03;4215047;28;19925;-57
2023/10/26 03:05:05;;;;;;;;;;;;;;;15.52;63.50;99193.53;4215286;28;19931;-58
2023/10/26 03:07:09;;;;;;;;;;;;;;;15.52;63.34;99191.75;4214837;28;19964;-58
2023/10/26 03:09:13;;;;;;;;;;;;;;;15.51;63.33;99187.41;4215266;28;19924;-57
2023/10/26 03:11:15;;;;;;;;;;;;;;;15.52;63.64;99185.59;4214675;28;20351;-58
2023/10/26 03:13:16;;;;;;;;;;;;;;;15.52;63.56;99175.00;4214842;28;20006;-58
2023/10/26 03:15:18;;;;;;;;;;;;;;;15.51;63.64;99174.16;4214994;28;20022;-57
2023/10/26 03:17:20;;;;;;;;;;;;;;;15.51;63.47;99176.00;4214696;28;20008;-58
2023/10/26 03:19:21;;;;;;;;;;;;;;;15.52;63.54;99175.00;4214848;28;19939;-58
2023/10/26 03:21:23;;;;;;;;;;;;;;;15.46;63.77;99171.06;4214792;28;20019;-58
2023/10/26 03:23:25;;;;;;;;;;;;;;;15.52;63.63;99169.69;4214694;28;20019;-58
2023/10/26 03:25:26;;;;;;;;;;;;;;;15.51;63.60;99168.03;4213782;28;19929;-58
2023/10/26 03:27:28;;;;;;;;;;;;;;;15.50;63.61;99172.47;4214485;28;19931;-58
2023/10/26 03:29:29;;;;;;;;;;;;;;;15.51;63.53;99162.75;4214817;28;19946;-57
2023/10/26 03:31:33;;;;;;;;;;;;;;;15.49;63.66;99160.19;4214567;28;20377;-58
2023/10/26 03:33:35;;;;;;;;;;;;;;;15.51;63.83;99157.44;4214622;28;19928;-60
2023/10/26 03:35:36;;;;;;;;;;;;;;;15.49;64.00;99149.59;4214409;28;19928;-58
2023/10/26 03:37:38;;;;;;;;;;;;;;;15.50;63.88;99148.63;4196571;28;20386;-57
2023/10/26 03:39:39;;;;;;;;;;;;;;;15.48;63.61;99143.47;4214280;28;20351;-57
2023/10/26 03:41:41;;;;;;;;;;;;;;;15.50;63.67;99151.28;4214535;28;20269;-57
2023/10/26 03:43:43;;;;;;;;;;;;;;;15.49;63.88;99146.94;4214299;28;19968;-58
2023/10/26 03:45:45;;;;;;;;;;;;;;;15.47;63.62;99139.13;4214758;28;19924;-58
2023/10/26 03:47:47;;;;;;;;;;;;;;;15.49;63.80;99154.91;4195968;28;19999;-58
2023/10/26 03:49:52;;;;;;;;;;;;;;;15.49;63.91;99146.94;4214196;28;19956;-57
2023/10/26 03:51:53;;;;;;;;;;;;;;;15.50;63.76;99159.22;4214072;28;19963;-58
2023/10/26 03:53:55;;;;;;;;;;;;;;;15.49;63.76;99152.25;4213877;28;20413;-57
2023/10/26 03:55:57;;;;;;;;;;;;;;;15.48;64.02;99147.91;4214016;28;19928;-57
2023/10/26 03:57:59;;;;;;;;;;;;;;;15.48;63.76;99147.91;4214015;28;19931;-58
2023/10/26 04:00:00;;;;;;;;;;;;;;;15.48;63.92;99146.13;4213998;28;20389;-58
2023/10/26 04:02:02;;;;;;;;;;;;;;;15.48;63.83;99145.25;4213939;28;20339;-57
2023/10/26 04:04:04;;;;;;;;;;;;;;;15.49;64.01;99149.59;4214130;28;19969;-58
2023/10/26 04:06:06;;;;;;;;;;;;;;;15.47;63.94;99139.13;4214168;28;19924;-58
2023/10/26 04:08:09;;;;;;;;;;;;;;;15.47;63.98;99133.84;4213775;28;19928;-58
2023/10/26 04:10:11;;;;;;;;;;;;;;;15.47;63.81;99131.19;4213948;28;20345;-57
2023/10/26 04:12:13;;;;;;;;;;;;;;;15.47;63.87;99125.88;4213957;28;20385;-58
2023/10/26 04:14:15;;;;;;;;;;;;;;;15.47;63.76;99127.72;4214034;28;19971;-58
2023/10/26 04:16:17;;;;;;;;;;;;;;;15.47;63.78;99135.66;4214051;28;20067;-57
2023/10/26 04:18:18;;;;;;;;;;;;;;;15.49;63.76;99141.66;4213801;28;20400;-56
2023/10/26 04:20:23;;;;;;;;;;;;;;;15.48;63.78;99137.31;4213879;28;19931;-57
2023/10/26 04:22:29;;;;;;;;;;;;;;;15.47;63.99;99130.34;4213543;28;19924;-58
2023/10/26 04:24:31;;;;;;;;;;;;;;;15.47;63.95;99130.34;4213900;28;19924;-58
2023/10/26 04:26:33;;;;;;;;;;;;;;;15.47;63.77;99127.72;4213926;28;20022;-58
2023/10/26 04:28:36;;;;;;;;;;;;;;;15.47;63.86;99119.75;4213865;28;19946;-57
2023/10/26 04:30:48;;;;;;;;;;;;;;;15.46;63.99;99115.41;4213721;28;20014;-58
2023/10/26 04:32:55;;;;;;;;;;;;;;;15.47;63.82;99120.59;4213454;28;19924;-58
2023/10/26 04:34:56;;;;;;;;;;;;;;;15.47;63.78;99125.06;4213796;28;20405;-57
2023/10/26 04:37:03;;;;;;;;;;;;;;;15.46;63.99;99113.59;4212745;28;19924;-58
2023/10/26 04:39:05;;;;;;;;;;;;;;;15.45;63.83;99111.91;4195689;28;20436;-58
2023/10/26 04:41:06;;;;;;;;;;;;;;;15.45;63.93;99101.31;4213548;28;19944;-58
2023/10/26 04:43:08;;;;;;;;;;;;;;;15.46;63.98;99105.66;4195490;28;19934;-58
2023/10/26 04:45:10;;;;;;;;;;;;;;;15.45;64.00;99106.63;4213502;28;19970;-58
2023/10/26 04:47:12;;;;;;;;;;;;;;;15.46;63.97;99092.41;4213547;28;20393;-57
2023/10/26 04:49:13;;;;;;;;;;;;;;;15.46;63.88;99107.47;4213311;28;19928;-59
2023/10/26 04:51:15;;;;;;;;;;;;;;;15.45;64.00;99106.63;4212992;28;19924;-58
2023/10/26 04:53:16;;;;;;;;;;;;;;;15.46;64.17;99092.41;4213620;28;19928;-58
2023/10/26 04:55:18;;;;;;;;;;;;;;;15.46;63.91;99096.88;4213309;28;19924;-58
2023/10/26 04:57:20;;;;;;;;;;;;;;;15.45;64.16;99090.72;4213492;28;20014;-58
2023/10/26 04:59:26;;;;;;;;;;;;;;;15.45;63.91;99087.25;4213528;28;20006;-58
2023/10/26 05:01:31;;;;;;;;;;;;;;;15.45;63.98;99090.72;4213647;28;19924;-58
2023/10/26 05:03:33;;;;;;;;;;;;;;;15.45;64.06;99096.00;4213365;28;19948;-58
2023/10/26 05:05:34;;;;;;;;;;;;;;;15.46;64.12;99099.53;4213143;28;19924;-57
2023/10/26 05:07:36;;;;;;;;;;;;;;;15.30;63.91;99065.50;4213477;28;20141;-58
2023/10/26 05:09:37;;;;;;;;;;;;;;;15.45;63.98;99084.59;4213266;28;19966;-58
2023/10/26 05:11:39;;;;;;;;;;;;;;;15.45;64.20;99080.13;4213363;28;19924;-57
2023/10/26 05:13:41;;;;;;;;;;;;;;;15.44;64.19;99083.75;4213393;28;20018;-58
2023/10/26 05:15:44;;;;;;;;;;;;;;;15.45;64.09;99071.34;4213155;28;20246;-58
2023/10/26 05:17:45;;;;;;;;;;;;;;;15.44;64.34;99072.31;4213207;28;19977;-58
2023/10/26 05:19:47;;;;;;;;;;;;;;;15.45;64.29;99066.03;4212879;28;19924;-56
2023/10/26 05:21:49;;;;;;;;;;;;;;;15.42;64.21;99056.53;4213393;28;19930;-58
2023/10/26 05:23:55;;;;;;;;;;;;;;;15.44;64.28;99056.41;4213569;28;20403;-58
2023/10/26 05:25:57;;;;;;;;;;;;;;;15.44;64.06;99054.63;4213308;28;19963;-58
2023/10/26 05:27:59;;;;;;;;;;;;;;;15.44;64.04;99054.63;4213072;28;20028;-58
2023/10/26 05:30:02;;;;;;;;;;;;;;;15.45;64.25;99053.63;4213035;28;19925;-58
2023/10/26 05:32:20;;;;;;;;;;;;;;;15.44;64.09;99059.91;4194988;28;20035;-58
2023/10/26 05:34:39;;;;;;;;;;;;;;;15.44;64.19;99054.63;4194722;28;20106;-57
2023/10/26 05:36:45;;;;;;;;;;;;;;;15.37;64.21;99034.03;4213136;28;20031;-59
2023/10/26 05:38:47;;;;;;;;;;;;;;;15.44;64.36;99051.97;4195128;28;19968;-58
2023/10/26 05:40:49;;;;;;;;;;;;;;;15.44;64.23;99049.31;4213062;28;19967;-59
2023/10/26 05:42:51;;;;;;;;;;;;;;;15.44;64.46;99053.75;4213159;28;20394;-59
2023/10/26 05:44:56;;;;;;;;;;;;;;;15.45;64.50;99047.50;4213123;28;19943;-58
2023/10/26 05:46:59;;;;;;;;;;;;;;;15.43;64.25;99039.69;4213235;28;20023;-58
2023/10/26 05:49:01;;;;;;;;;;;;;;;15.43;64.34;99039.69;4215315;28;19924;-58
2023/10/26 05:51:02;;;;;;;;;;;;;;;15.43;64.29;99045.00;4216043;28;19924;-58
2023/10/26 05:53:04;;;;;;;;;;;;;;;15.44;64.64;99049.31;4216148;28;19924;-58
2023/10/26 05:55:06;;;;;;;;;;;;;;;15.43;64.14;99050.28;4216179;28;19924;-58
2023/10/26 05:57:08;;;;;;;;;;;;;;;15.43;64.52;99052.94;4216241;28;19939;-59
2023/10/26 05:59:09;;;;;;;;;;;;;;;15.44;64.34;99056.41;4216164;28;19924;-58
2023/10/26 06:01:11;;;;;;;;;;;;;;;15.44;64.56;99062.56;4215818;28;19924;-58
2023/10/26 06:03:12;;;;;;;;;;;;;;;15.44;64.02;99067.88;4215970;28;20425;-58
2023/10/26 06:05:14;;;;;;;;;;;;;;;15.44;64.34;99064.34;4216135;28;20313;-59
2023/10/26 06:07:16;;;;;;;;;;;;;;;15.44;64.56;99067.88;4216163;28;19924;-58
2023/10/26 06:09:17;;;;;;;;;;;;;;;15.44;64.16;99067.88;4215763;28;19977;-58
2023/10/26 06:11:19;;;;;;;;;;;;;;;15.44;64.37;99067.88;4215959;28;19924;-58
2023/10/26 06:13:21;;;;;;;;;;;;;;;15.44;64.66;99086.41;4215743;28;19932;-58
2023/10/26 06:15:22;;;;;;;;;;;;;;;15.45;64.21;99097.84;4215732;28;20389;-58
2023/10/26 06:17:24;;;;;;;;;;;;;;;15.45;64.41;99103.97;4215524;28;19955;-58
2023/10/26 06:19:25;;;;;;;;;;;;;;;15.45;64.26;99096.00;4215154;28;19931;-58
2023/10/26 06:21:27;;;;;;;;;;;;;;;15.44;64.51;99097.00;4215648;28;19924;-59
2023/10/26 06:23:29;;;;;;;;;;;;;;;15.43;64.30;99095.31;4215265;28;20016;-59
2023/10/26 06:25:34;;;;;;;;;;;;;;;15.44;64.58;99104.97;4215536;28;19931;-58
2023/10/26 06:27:36;;;;;;;;;;;;;;;15.44;64.40;99099.66;4215605;28;19924;-58
2023/10/26 06:29:37;;;;;;;;;;;;;;;15.44;64.41;99097.00;4215610;28;19924;-58
2023/10/26 06:31:39;;;;;;;;;;;;;;;15.43;64.39;99103.28;4215613;28;19935;-58
2023/10/26 06:33:41;;;;;;;;;;;;;;;15.43;64.70;99097.97;4215443;28;19958;-58
2023/10/26 06:35:42;;;;;;;;;;;;;;;15.44;64.72;99107.59;4215405;28;20008;-59
2023/10/26 06:37:44;;;;;;;;;;;;;;;15.43;64.57;99108.56;4215398;28;19931;-58
2023/10/26 06:39:47;;;;;;;;;;;;;;;15.43;64.69;99115.66;4215557;28;20301;-58
2023/10/26 06:41:48;;;;;;;;;;;;;;;15.44;64.46;99125.28;4215306;28;19955;-58
2023/10/26 06:43:51;;;;;;;;;;;;;;;15.43;64.31;99113.88;4197448;28;19924;-58
2023/10/26 06:45:53;;;;;;;;;;;;;;;15.43;64.72;99119.16;4215149;28;19978;-58
2023/10/26 06:47:54;;;;;;;;;;;;;;;15.44;64.59;99125.28;4213717;28;19932;-57
2023/10/26 06:49:56;;;;;;;;;;;;;;;15.43;64.35;99123.59;4215200;28;20027;-57
2023/10/26 06:51:57;;;;;;;;;;;;;;;15.43;64.38;99126.25;4215132;28;19924;-57
2023/10/26 06:53:59;;;;;;;;;;;;;;;15.43;64.89;99139.50;4215075;28;20385;-58
2023/10/26 06:56:01;;;;;;;;;;;;;;;15.43;64.44;99145.66;4215373;28;20015;-57
2023/10/26 06:58:03;;;;;;;;;;;;;;;15.44;64.45;99138.53;4215319;28;20331;-59
2023/10/26 07:00:06;;;;;;;;;;;;;;;15.43;64.45;99143.00;4214314;28;19970;-59
2023/10/26 07:02:08;;;;;;;;;;;;;;;15.43;64.36;99150.09;4197004;28;19979;-57
2023/10/26 07:04:12;;;;;;;;;;;;;;;15.44;64.36;99151.78;4214938;28;19924;-59
2023/10/26 07:06:14;;;;;;;;;;;;;;;15.43;64.43;99150.97;4214986;28;20408;-59
2023/10/26 07:08:16;;;;;;;;;;;;;;;15.43;64.63;99153.59;4214828;28;19946;-58
2023/10/26 07:10:21;;;;;;;;;;;;;;;15.43;64.39;99161.56;4215013;28;20347;-58
2023/10/26 07:12:23;;;;;;;;;;;;;;;15.43;64.42;99168.63;4214748;28;19924;-58
2023/10/26 07:14:27;;;;;;;;;;;;;;;15.43;64.70;99161.56;4214911;28;19924;-58
2023/10/26 07:16:29;;;;;;;;;;;;;;;15.43;64.38;99172.16;4214551;28;19924;-58
2023/10/26 07:18:31;;;;;;;;;;;;;;;15.43;64.35;99177.44;4214701;28;20679;-58
2023/10/26 07:20:33;;;;;;;;;;;;;;;15.43;64.28;99171.28;4214847;28;19924;-59
2023/10/26 07:22:35;;;;;;;;;;;;;;;15.32;64.56;99167.72;4214729;28;20301;-58
2023/10/26 07:24:36;;;;;;;;;;;;;;;15.44;64.37;99196.81;4214922;28;20297;-58
2023/10/26 07:26:38;;;;;;;;;;;;;;;15.43;64.70;99198.66;4214806;28;19963;-58
2023/10/26 07:28:40;;;;;;;;;;;;;;;15.44;64.30;99199.47;4196723;28;19948;-59
2023/10/26 07:30:42;;;;;;;;;;;;;;;15.44;64.54;99195.03;4214389;28;20373;-58
2023/10/26 07:32:44;;;;;;;;;;;;;;;15.44;64.47;99202.97;4214334;28;19998;-58
2023/10/26 07:34:46;;;;;;;;;;;;;;;15.44;64.48;99204.78;4214596;28;20300;-59
2023/10/26 07:36:47;;;;;;;;;;;;;;;15.45;64.63;99214.41;4214257;28;19926;-58
2023/10/26 07:38:49;;;;;;;;;;;;;;;15.45;64.61;99214.41;4214562;28;19924;-59
2023/10/26 07:41:10;;;;;;;;;;;;;;;15.44;64.63;99200.34;4214647;28;19924;-58
2023/10/26 07:43:16;;;;;;;;;;;;;;;15.44;64.51;99210.94;4214327;28;19935;-58
2023/10/26 07:45:17;;;;;;;;;;;;;;;15.43;64.32;99209.25;4214222;28;19936;-57
2023/10/26 07:47:19;;;;;;;;;;;;;;;15.45;65.26;99214.41;4214403;28;19931;-55
2023/10/26 07:49:20;;;;;;;;;;;;;;;15.47;65.06;99223.91;4214032;28;19981;-57
2023/10/26 07:51:22;;;;;;;;;;;;;;;15.52;64.91;99233.28;4207226;28;19978;-59
2023/10/26 07:53:24;;;;;;;;;;;;;;;15.56;65.30;99229.44;4210957;28;20356;-58
2023/10/26 07:55:25;;;;;;;;;;;;;;;15.58;64.73;99246.06;4197103;28;19977;-56
2023/10/26 07:57:27;;;;;;;;;;;;;;;15.59;64.65;99240.63;4197323;28;19925;-55
2023/10/26 07:59:31;;;;;;;;;;;;;;;15.60;64.64;99244.13;4196363;28;19964;-55
2023/10/26 08:01:33;;;;;;;;;;;;;;;15.60;64.70;99233.53;4197357;28;19928;-56
2023/10/26 08:03:35;;;;;;;;;;;;;;;15.61;64.94;99243.16;4197165;28;20389;-56
2023/10/26 08:05:36;;;;;;;;;;;;;;;15.61;64.83;99248.47;4197001;28;20488;-56
2023/10/26 08:07:45;;;;;;;;;;;;;;;15.61;64.50;99243.16;4197069;28;19931;-55
2023/10/26 08:09:47;;;;;;;;;;;;;;;15.63;64.68;99249.19;4201818;28;19939;-58
2023/10/26 08:11:49;;;;;;;;;;;;;;;15.62;64.50;99256.28;4206464;28;20019;-59
2023/10/26 08:13:51;;;;;;;;;;;;;;;15.62;64.67;99256.28;4213691;28;20022;-58
2023/10/26 08:15:53;;;;;;;;;;;;;;;15.61;64.42;99261.72;4196857;28;19993;-59
2023/10/26 08:18:15;;;;;;;;;;;;;;;15.59;64.88;99266.28;4207534;28;19924;-59
2023/10/26 08:20:17;;;;;;;;;;;;;;;15.58;64.74;99272.56;4203161;28;20348;-58
2023/10/26 08:22:20;;;;;;;;;;;;;;;15.55;64.61;99280.75;4197050;28;20374;-59
2023/10/26 08:24:21;;;;;;;;;;;;;;;15.54;64.84;99285.22;4196786;28;20405;-59
2023/10/26 08:26:23;;;;;;;;;;;;;;;15.54;64.48;99282.56;4196931;28;19924;-59
2023/10/26 08:28:24;;;;;;;;;;;;;;;15.54;64.68;99281.72;4196662;28;20309;-58
2023/10/26 08:30:31;;;;;;;;;;;;;;;15.54;64.67;99276.41;4196598;28;19994;-60
2023/10/26 08:32:32;;;;;;;;;;;;;;;15.53;64.82;99275.59;4196915;28;19932;-59
2023/10/26 08:34:34;;;;;;;;;;;;;;;15.53;65.05;99266.78;4197048;28;20019;-59
2023/10/26 08:36:41;;;;;;;;;;;;;;;15.51;64.91;99269.56;4196684;28;19925;-59
2023/10/26 08:38:51;;;;;;;;;;;;;;;15.52;64.57;99258.00;4196841;28;19924;-59
2023/10/26 08:40:53;;;;;;;;;;;;;;;15.51;64.72;99274.03;4196771;28;20295;-59
2023/10/26 08:42:55;;;;;;;;;;;;;;;15.52;64.65;99273.03;4196248;28;20027;-58
2023/10/26 08:44:59;;;;;;;;;;;;;;;15.50;64.87;99267.88;4196802;28;20404;-59
2023/10/26 08:47:04;;;;;;;;;;;;;;;15.51;65.07;99264.25;4201293;28;19934;-59
2023/10/26 08:49:06;;;;;;;;;;;;;;;15.51;64.92;99287.28;4213297;28;19924;-58
2023/10/26 08:51:08;;;;;;;;;;;;;;;15.51;64.82;99287.28;4208293;28;19956;-60
2023/10/26 08:53:09;;;;;;;;;;;;;;;15.50;64.83;99273.16;4205978;28;19933;-59
2023/10/26 08:55:11;;;;;;;;;;;;;;;15.48;64.82;99280.38;4213671;28;19924;-58
2023/10/26 08:57:14;;;;;;;;;;;;;;;15.48;64.83;99286.53;4196566;28;19947;-59
2023/10/26 08:59:16;;;;;;;;;;;;;;;15.48;64.76;99283.03;4196804;28;19924;-58
2023/10/26 09:01:18;;;;;;;;;;;;;;;15.47;64.84;99287.50;4196384;28;19985;-58
2023/10/26 09:03:21;;;;;;;;;;;;;;;15.48;64.69;99296.28;4196518;28;19994;-59
2023/10/26 09:05:23;;;;;;;;;;;;;;;15.48;64.88;99301.56;4196652;28;19947;-59
2023/10/26 09:07:26;;;;;;;;;;;;;;;15.47;64.69;99295.44;4196666;28;19925;-59
2023/10/26 09:09:27;;;;;;;;;;;;;;;15.48;64.54;99294.50;4196709;28;20011;-59
2023/10/26 09:11:30;;;;;;;;;;;;;;;15.48;64.71;99293.63;4196259;28;19928;-58
2023/10/26 09:13:32;;;;;;;;;;;;;;;15.49;64.51;99300.63;4196234;28;19955;-58
2023/10/26 09:15:47;;;;;;;;;;;;;;;15.49;64.83;99301.47;4196579;28;19928;-58
2023/10/26 09:17:49;;;;;;;;;;;;;;;15.51;64.49;99297.88;4203443;28;19924;-59
2023/10/26 09:19:50;;;;;;;;;;;;;;;15.51;64.67;99292.56;4213347;28;20385;-58
2023/10/26 09:21:52;;;;;;;;;;;;;;;15.48;64.79;99291.84;4205901;28;19972;-58
2023/10/26 09:23:54;;;;;;;;;;;;;;;15.50;64.44;99302.31;4199443;28;20405;-58
2023/10/26 09:26:07;;;;;;;;;;;;;;;15.51;64.51;99313.75;4199594;28;20019;-59
2023/10/26 09:28:09;;;;;;;;;;;;;;;15.51;64.65;99325.19;4199118;28;19924;-59
2023/10/26 09:30:28;;;;;;;;;;;;;;;15.51;64.40;99321.72;4199559;28;20385;-59
2023/10/26 09:32:32;;;;;;;;;;;;;;;15.51;64.40;99316.41;4199279;28;19925;-59
2023/10/26 09:34:39;;;;;;;;;;;;;;;15.52;64.36;99315.44;4199361;28;20015;-59
2023/10/26 09:36:41;;;;;;;;;;;;;;;15.51;64.36;99316.41;4199475;28;19928;-59
2023/10/26 09:38:44;;;;;;;;;;;;;;;15.49;64.34;99313.88;4186001;28;19924;-59
2023/10/26 09:40:45;;;;;;;;;;;;;;;15.48;64.40;99320.97;4215610;28;19924;-59
2023/10/26 09:42:48;;;;;;;;;;;;;;;15.49;64.38;99332.41;4211702;28;19937;-59
2023/10/26 09:44:50;;;;;;;;;;;;;;;15.48;64.59;99336.03;4208115;28;20011;-59
2023/10/26 09:46:52;;;;;;;;;;;;;;;15.48;64.74;99331.59;4201291;28;19939;-59
2023/10/26 09:48:53;;;;;;;;;;;;;;;15.51;64.75;99342.91;4210941;28;20357;-58
2023/10/26 09:51:00;;;;;;;;;;;;;;;15.51;64.63;99338.44;4199675;28;19928;-58
2023/10/26 09:53:02;;;;;;;;;;;;;;;15.49;64.44;99335.06;4202625;28;19946;-58
2023/10/26 09:55:06;;;;;;;;;;;;;;;15.49;64.66;99332.41;4208095;28;20274;-58
2023/10/26 09:57:17;;;;;;;;;;;;;;;15.51;64.35;99327.03;4198012;28;19924;-60
2023/10/26 09:59:19;;;;;;;;;;;;;;;15.51;64.30;99321.72;4185144;28;20011;-58
2023/10/26 10:01:37;;;;;;;;;;;;;;;15.52;64.27;99315.44;4216034;28;19931;-58
2023/10/26 10:03:45;;;;;;;;;;;;;;;15.52;64.13;99307.47;4209877;28;20391;-59
2023/10/26 10:05:47;;;;;;;;;;;;;;;15.52;64.36;99303.03;4210018;28;19925;-58
2023/10/26 10:07:49;;;;;;;;;;;;;;;15.52;64.34;99296.88;4213614;28;19931;-58
2023/10/26 10:10:05;;;;;;;;;;;;;;;15.52;64.22;99291.59;4204178;28;19954;-58
2023/10/26 10:12:13;;;;;;;;;;;;;;;15.52;64.04;99295.09;4216201;28;19928;-58
2023/10/26 10:14:41;;;;;;;;;;;;;;;15.54;64.06;99301.13;4207550;28;20332;-58
2023/10/26 10:16:45;;;;;;;;;;;;;;;15.54;64.05;99308.22;4214763;28;20110;-58
2023/10/26 10:19:09;;;;;;;;;;;;;;;15.55;63.98;99307.25;4208136;28;19967;-58
2023/10/26 10:21:30;;;;;;;;;;;;;;;15.58;63.80;99299.06;4199097;28;19924;-59
2023/10/26 10:23:36;;;;;;;;;;;;;;;15.60;64.35;99291.81;4198558;28;19936;-58
2023/10/26 10:25:50;;;;;;;;;;;;;;;15.62;64.29;99308.44;4198591;28;20464;-59
2023/10/26 10:27:52;;;;;;;;;;;;;;;15.64;64.16;99311.84;4198798;28;19932;-59
2023/10/26 10:29:55;;;;;;;;;;;;;;;15.58;64.00;99304.38;4198445;28;19928;-59
2023/10/26 10:31:57;;;;;;;;;;;;;;;15.66;64.14;99317.84;4202497;28;19930;-59
2023/10/26 10:34:00;;;;;;;;;;;;;;;15.66;64.10;99315.19;4210370;28;19929;-58
2023/10/26 10:36:03;;;;;;;;;;;;;;;15.67;63.71;99318.69;4198101;28;20015;-58
2023/10/26 10:38:11;;;;;;;;;;;;;;;15.67;63.77;99316.88;4198508;28;20320;-58
2023/10/26 10:40:13;;;;;;;;;;;;;;;15.67;64.06;99327.47;4197851;28;19928;-58
2023/10/26 10:42:15;;;;;;;;;;;;;;;15.68;64.33;99326.50;4197568;28;19924;-58